EDT,Max TemperatureF,Mean TemperatureF,Min TemperatureF,Max Dew PointF,MeanDew PointF,Min DewpointF,Max Humidity, Mean Humidity, Min Humidity, Max Sea Level PressureIn, Mean Sea Level PressureIn, Min Sea Level PressureIn, Max VisibilityMiles, Mean VisibilityMiles, Min VisibilityMiles, Max Wind SpeedMPH, Mean Wind SpeedMPH, Max Gust SpeedMPH,PrecipitationIn, CloudCover, Events, WindDirDegrees
2011-9-1,97,85,73,72,69,65,74,58,42,30.01,29.96,29.91,10,10,10,14,5,18,0.00,1,,224
2011-9-2,98,85,72,70,67,65,84,60,35,29.99,29.94,29.90,10,10,7,14,4,17,0.00,0,,250
2011-9-3,97,83,68,71,68,65,93,66,38,29.93,29.88,29.81,10,9,3,25,4,32,0.18,1,Rain-Thunderstorm,279
2011-9-4,76,67,58,70,64,54,100,73,46,29.97,29.89,29.83,10,6,0,14,6,18,0.05,2,Fog-Rain,311
2011-9-5,68,61,53,55,48,45,84,65,45,30.07,30.02,29.96,10,10,10,24,12,31,0.00,1,,20
2011-9-6,68,58,47,50,46,43,86,69,52,30.13,30.09,30.06,10,10,10,24,11,33,0.00,2,,34
2011-9-7,74,63,52,54,50,47,89,67,45,30.10,30.07,30.04,10,10,9,23,12,30,T,2,,23
2011-9-8,65,61,57,63,57,51,93,84,75,30.07,29.99,29.91,10,5,1,16,9,23,0.37,8,Rain,6
2011-9-9,73,67,61,63,61,59,100,84,68,29.96,29.92,29.90,10,8,2,10,2,14,0.18,8,Rain,89
2011-9-10,75,67,58,63,60,57,100,82,64,30.03,29.99,29.96,10,4,0,10,2,14,0.00,6,Fog,85
2011-9-11,81,69,56,65,59,55,100,76,51,30.06,30.02,29.98,10,3,0,13,1,15,0.01,2,Fog,325
2011-9-12,87,73,59,63,59,56,97,67,37,30.06,30.00,29.91,10,7,1,14,4,18,0.00,1,,246
2011-9-13,87,74,60,62,60,57,84,63,42,29.96,29.88,29.86,10,10,10,15,7,22,0.00,0,,287
2011-9-14,72,63,53,55,52,50,93,71,49,30.12,30.05,29.97,10,8,5,18,6,23,0.27,5,Rain,25
2011-9-15,64,53,42,45,40,37,93,65,37,30.35,30.27,30.15,10,10,10,18,8,22,0.00,1,,24
2011-9-16,65,56,46,44,40,37,82,61,39,30.40,30.33,30.27,10,10,10,16,7,20,0.00,3,,83
2011-9-17,72,63,53,49,46,44,77,58,38,30.31,30.25,30.21,10,10,10,16,9,18,T,4,,90
2011-9-18,71,64,56,63,56,47,87,77,67,30.23,30.14,30.01,10,10,9,14,7,17,0.05,7,Rain,127
2011-9-19,70,66,61,66,64,60,93,83,73,30.03,29.96,29.94,10,7,1,13,5,20,0.72,8,Rain,228
2011-9-20,78,66,54,61,57,53,100,75,50,30.09,30.04,29.97,10,4,0,8,1,12,0.00,4,Fog,120
2011-9-21,79,66,52,63,58,43,93,62,31,30.04,29.98,29.94,10,8,2,18,6,23,0.00,4,,253
2011-9-22,70,60,50,54,51,48,93,70,47,30.14,30.10,30.04,10,10,7,13,3,17,0.05,4,Rain,262
2011-9-23,68,61,54,54,50,43,100,71,42,30.12,30.06,29.98,10,9,4,13,5,17,T,5,,314
2011-9-24,64,58,52,55,51,48,93,78,63,30.01,29.98,29.93,10,8,2,17,5,21,0.44,7,Rain-Thunderstorm,76
2011-9-25,63,59,54,55,54,53,100,86,72,29.95,29.90,29.79,10,8,4,16,6,22,0.82,7,Rain-Thunderstorm,128
2011-9-26,64,59,54,56,52,48,93,77,60,29.78,29.71,29.58,10,9,4,18,8,22,0.09,7,Rain,232
2011-9-27,57,56,54,55,53,51,100,90,80,29.79,29.74,29.68,10,7,2,16,9,23,0.34,8,Rain,220
2011-9-28,65,60,54,55,53,51,100,97,93,29.83,29.80,29.77,10,8,2,15,5,18,0.15,7,Rain-Thunderstorm,255
2011-9-29,78,63,48,57,50,45,100,75,49,29.84,29.79,29.67,10,4,0,32,9,49,0.04,3,Fog-Rain,268
2011-9-30,62,53,43,47,43,37,89,67,44,30.11,29.94,29.72,10,10,10,28,13,39,0.01,6,Rain,333